x

Eastern Caribbean - 190 Nm Nne Of Curacao (42059) Wave Buoy

3:50pm - Sun 30th Aug 2015 All times are AST. -4 hours from GMT.

  • Sig Wave height 4.9ft
  • Swell Direction
  • Peak Period 6s
  • Average Period 5s
  • Wind
    18mph, 22mph gusts
  • Sea Temp 85°f
  • Air Temp 84°f
  • Sea Pressure 1013.1mb
  • Eastern Caribbean - 190 Nm Nne Of Curacao
  • Eastern Caribbean - 190 Nm Nne Of Curacao

More Historic Weather Station data

Upgrade to MSW Pro to gain access to the past 30 days of data for over 8000 Wavebouys and Weather Stations around the globe.

Join Pro

Comparision Forecast

View Surf forecast
   
Sun 08/30 3:50pm 5ft 6s 5s 18 22 mph 1013.1mb 85f 84f
2:50pm 5ft 7s 5s 18 22 mph 1013.3mb 85f 84f
1:50pm 4.5ft 6s 5s 18 22 mph 1013.9mb 85f 84f
12:50pm 5ft 6s 5s 20 25 mph 1014.3mb 85f 84f
11:50am 4.5ft 6s 5s 22 27 mph 1014.6mb 84f 84f
10:50am 5ft 6s 5s 22 27 mph 1014.9mb 84f 84f
9:50am 4.5ft 7s 5s 20 22 mph 1014.5mb 84f 84f
8:50am 5ft 6s 5s 20 25 mph 1014mb 84f 84f
7:50am 4.5ft 6s 5s 18 20 mph 1013.1mb 84f 83f
6:50am 4.5ft 7s 5s 22 27 mph 1012.3mb 84f 83f
5:50am 5ft 6s 5s 20 25 mph 1012.2mb 84f 83f
4:50am 5ft 7s 5s 18 22 mph 1012mb 84f 82f
3:50am 5ft 7s 5s 18 22 mph 1012mb 84f 83f
2:50am 5ft 5s 5s 16 22 mph 1012.2mb 84f 83f
1:50am 5ft 7s 5s 20 25 mph 1012.5mb 84f 84f
12:50am 5ft 6s 5s 22 25 mph 1012.9mb 84f 84f
Sat 08/29 11:50pm 5ft 6s 5s 20 25 mph 1013.6mb 84f 83f
10:50pm 5ft 7s 5s 20 22 mph 1014mb 84f 83f
9:50pm 5ft 6s 5s 20 25 mph 1013.8mb 84f 84f
8:50pm 5.5ft 7s 5s 20 25 mph 1013.3mb 84f 84f
7:50pm 5.5ft 6s 5s 20 22 mph 1013.1mb 84f 84f
6:50pm 5ft 6s 5s 20 22 mph 1012.6mb 84f 84f
5:50pm 5.5ft 7s 5s 20 25 mph 1012.3mb 84f 84f
4:50pm 5ft 6s 5s 20 22 mph 1012mb 84f 84f
3:50pm 5.5ft 7s 5s 20 25 mph 1012.2mb 84f 84f
2:50pm 6ft 7s 6s 20 22 mph 1012.9mb 84f 84f
1:50pm 6ft 7s 5s 18 22 mph 1013.8mb 84f 84f
12:50pm 6ft 7s 5s 20 22 mph 1014.6mb 84f 84f
11:50am 6ft 7s 5s 20 22 mph 1014.9mb 84f 84f
10:50am 7ft 7s 6s 20 25 mph 1015mb 84f 84f
9:50am 6ft 7s 5s 20 22 mph 1015mb 84f 84f
8:50am 6.5ft 8s 6s 20 25 mph 1014.7mb 84f 84f
7:50am 6ft 8s 6s 18 22 mph 1014.4mb 84f 83f
6:50am 6ft 8s 6s 18 22 mph 1013.8mb 84f 83f
5:50am 6ft 7s 5s 18 22 mph 1013.4mb 84f 83f
4:50am 6.5ft 8s 6s 20 25 mph 1012.9mb 84f 84f
3:50am 6.5ft 8s 6s 20 25 mph 1012.8mb 84f 83f
2:50am 7ft 7s 6s 20 25 mph 1013.2mb 84f 84f
1:50am 7ft 7s 6s 20 25 mph 1013.5mb 84f 84f
12:50am 7.5ft 7s 6s 22 27 mph 1013.8mb 84f 84f
Fri 08/28 11:50pm 7.5ft 8s 6s 25 29 mph 1014mb 84f 84f
10:50pm 7ft 8s 6s 22 29 mph 1013.9mb 84f 84f
9:50pm 7ft 7s 5s 25 29 mph 1013.5mb 84f 84f
8:50pm 7ft 7s 6s 25 29 mph 1012.7mb 84f 84f
7:50pm 7ft 7s 6s 22 29 mph 1012mb 84f 84f
6:50pm 7ft 7s 6s 25 27 mph 1011.8mb 84f 84f
5:50pm 7.5ft 7s 6s 22 27 mph 1011.7mb 84f 84f
4:50pm 7ft 8s 6s 22 27 mph 1012mb 84f 84f
3:50pm 8ft 8s 6s 25 29 mph 1011.9mb 84f 84f
2:50pm 9ft 8s 6s 25 29 mph 1012mb 84f 84f
1:50pm 7.5ft 8s 6s 25 29 mph 1012.4mb 84f 84f
12:50pm 8.5ft 9s 6s 18 22 mph 1013.5mb 84f 83f
11:50am 11ft 8s 7s 22 27 mph 1013.6mb 84f 81f
10:50am 11ft 8s 7s 20 25 mph 1014.1mb 84f 80f
9:50am 7ft 10s 6s 29 36 mph 1012.9mb 84f 79f
8:50am 5ft 10s 6s 25 34 mph 1012.3mb 84f 83f
7:50am 4.5ft 11s 6s 20 22 mph 1011.3mb 84f 84f
6:50am 3.5ft 7s 6s 20 22 mph 1010.7mb 84f 84f
5:50am 3.5ft 9s 6s 16 18 mph 1010.4mb 84f 83f
4:50am 3.5ft 10s 7s 13 16 mph 1009.7mb 84f 83f
3:50am 3.5ft 10s 6s 11 13 mph 1009.7mb 84f 83f
2:50am 3.5ft 8s 6s 9 11 mph 1010mb 84f 83f
1:50am 4.5ft 8s 7s 9 11 mph 1010.2mb 84f 83f
12:50am 4.5ft 7s 6s 9
mph
1011.2mb 84f 83f
Thu 08/27 11:50pm 4.5ft 11s 7s 4 7 mph 1011.3mb 84f 83f
10:50pm 4.5ft 10s 6s 4
mph
1011.4mb 85f 83f
9:50pm 4.5ft 7s 6s 2 4 mph 1011.4mb 85f 83f
8:50pm 4ft 11s 6s 4 7 mph 1011mb 85f 83f
7:50pm 4.5ft 11s 6s 7 9 mph 1010.2mb 85f 83f
6:50pm 4ft 7s 6s 9 11 mph 1009.2mb 85f 82f
5:50pm 4ft 7s 6s 7 9 mph 1008.9mb 85f 82f
4:50pm 4ft 12s 6s 7
mph
1009mb 85f 82f
3:50pm 4ft 12s 5s 11 16 mph 1009.4mb 85f 79f
2:50pm 4ft 7s 5s 7 9 mph 1009.9mb 85f 83f
1:50pm 4.5ft 6s 5s 9 11 mph 1010.8mb 85f 82f
12:50pm 4.5ft 6s 5s 11 13 mph 1011.1mb 85f 82f
11:50am 4ft 6s 5s 16 22 mph 1012.2mb 84f 82f
10:50am 4.5ft 6s 5s 16 18 mph 1012.3mb 84f 84f
9:50am 4ft 6s 5s 16 20 mph 1012.2mb 84f 84f
8:50am 4.5ft 6s 5s 11 13 mph 1011.9mb 84f 81f
7:50am 4.5ft 6s 5s 13 18 mph 1011.6mb 84f 84f
6:50am 4.5ft 6s 5s 13 16 mph 1011.2mb 84f 83f
5:50am 4.5ft 6s 5s 20 27 mph 1010.4mb 84f 83f
4:50am 4.5ft 7s 5s 18 22 mph 1010.4mb 84f 84f
3:50am 4.5ft 6s 4s 18 20 mph 1010.6mb 84f 84f
2:50am 3.5ft 6s 5s 18 22 mph 1010.4mb 84f 83f
1:50am 4ft 7s 5s 13 18 mph 1011.6mb 84f 82f
12:50am 3.5ft 6s 5s 16 20 mph 1012.2mb 85f 84f
Wed 08/26 11:50pm 4ft 6s 5s 16 18 mph 1012.9mb 85f 84f
10:50pm 3.5ft 6s 5s 13 18 mph 1013.4mb 85f 84f
9:50pm 3.5ft 5s 4s 13 16 mph 1013.1mb 85f 84f